Time;durP1;ratioP1;P1;durP2;ratioP2;P2;SDS_P1;SDS_P2;PMS_P1;PMS_P2;Temp;Humidity;BMP_temperature;BMP_pressure;BME280_temperature;BME280_humidity;BME280_pressure;Samples;Min_cycle;Max_cycle;Signal;HPM_P1;HPM_P2
2022/12/09 00:03:49;;;;;;;40.63;25.87;;;2.70;99.90;;;;;;2613418;54;20562;-73
2022/12/09 00:09:36;;;;;;;39.73;27.13;;;2.80;99.90;;;;;;2612974;39;21410;-74
2022/12/09 00:15:24;;;;;;;43.37;28.00;;;2.80;99.90;;;;;;2614112;54;20267;-75
2022/12/09 00:21:14;;;;;;;51.37;28.90;;;2.80;99.90;;;;;;2613933;47;20619;-76
2022/12/09 00:24:30;;;;;;;42.37;28.20;;;2.80;99.90;;;;;;2613802;54;20523;-75
2022/12/09 00:26:59;;;;;;;41.90;27.90;;;2.80;99.90;;;;;;2613531;47;20491;-74
2022/12/09 00:32:46;;;;;;;45.63;27.47;;;2.80;99.90;;;;;;2613551;54;20386;-75
2022/12/09 00:38:34;;;;;;;40.00;26.00;;;2.80;99.90;;;;;;2614172;54;20249;-74
2022/12/09 00:44:22;;;;;;;44.17;26.67;;;2.80;99.90;;;;;;2613890;54;20419;-75
2022/12/09 00:50:10;;;;;;;52.30;29.50;;;2.90;99.90;;;;;;2612717;54;20146;-74
2022/12/09 00:55:58;;;;;;;46.00;26.87;;;2.80;99.90;;;;;;2613771;54;20138;-75
2022/12/09 01:01:46;;;;;;;42.60;28.80;;;2.80;99.90;;;;;;2613838;54;20388;-74
2022/12/09 01:07:36;;;;;;;43.03;27.63;;;2.90;99.90;;;;;;2614126;54;20149;-75
2022/12/09 01:13:24;;;;;;;46.30;28.03;;;3.00;99.90;;;;;;2614492;54;20387;-74
2022/12/09 01:19:13;;;;;;;42.57;26.20;;;2.90;99.90;;;;;;2612494;54;20153;-73
2022/12/09 01:29:03;;;;;;;44.73;29.80;;;2.80;99.90;;;;;;2613017;54;20419;-75
2022/12/09 01:34:51;;;;;;;42.80;27.83;;;2.80;99.90;;;;;;2613653;39;20718;-75
2022/12/09 01:40:44;;;;;;;38.60;27.50;;;2.70;99.90;;;;;;2613848;54;20199;-75
2022/12/09 01:46:32;;;;;;;43.50;28.73;;;2.70;99.90;;;;;;2615319;39;20752;-74
2022/12/09 01:52:23;;;;;;;43.50;29.30;;;2.80;99.90;;;;;;2612318;54;20126;-73
2022/12/09 01:58:12;;;;;;;47.03;27.87;;;2.90;99.90;;;;;;2614453;54;21089;-75
2022/12/09 02:04:00;;;;;;;44.57;27.03;;;2.80;99.90;;;;;;2614639;54;20474;-70
2022/12/09 02:09:51;;;;;;;40.23;26.67;;;2.80;99.90;;;;;;2614176;54;20141;-71
2022/12/09 02:21:58;;;;;;;39.07;27.13;;;3.00;99.90;;;;;;2613998;54;20403;-71
2022/12/09 02:46:41;;;;;;;39.50;26.43;;;2.90;99.90;;;;;;2614461;54;20415;-71
2022/12/09 02:52:30;;;;;;;43.70;26.90;;;3.00;99.90;;;;;;2614341;54;20423;-71
2022/12/09 02:58:18;;;;;;;38.97;25.30;;;3.00;99.90;;;;;;2614051;54;20387;-71
2022/12/09 03:04:09;;;;;;;42.00;28.37;;;3.10;99.90;;;;;;2614666;54;20129;-71
2022/12/09 03:22:40;;;;;;;54.60;29.50;;;2.90;99.90;;;;;;2614383;39;20813;-71
2022/12/09 03:31:53;;;;;;;53.50;27.20;;;3.00;99.90;;;;;;2614960;39;20732;-73
2022/12/09 03:37:43;;;;;;;41.20;25.57;;;2.90;99.90;;;;;;2613803;54;20403;-70
2022/12/09 03:43:36;;;;;;;40.47;25.80;;;2.90;99.90;;;;;;2614059;54;20418;-72
2022/12/09 03:49:24;;;;;;;39.03;23.67;;;2.90;99.90;;;;;;2613024;54;20365;-71
2022/12/09 04:01:29;;;;;;;41.50;27.10;;;2.80;99.90;;;;;;2614513;54;20454;-77
2022/12/09 04:07:16;;;;;;;41.37;26.83;;;2.80;99.90;;;;;;2614733;54;20353;-76
2022/12/09 04:13:04;;;;;;;41.23;26.70;;;2.80;99.90;;;;;;2613093;39;20528;-76
2022/12/09 04:18:52;;;;;;;39.30;27.33;;;2.70;99.90;;;;;;2614353;54;20270;-76
2022/12/09 04:24:39;;;;;;;44.43;26.47;;;2.70;99.90;;;;;;2614429;54;20186;-76
2022/12/09 04:27:17;;;;;;;44.73;29.37;;;2.70;99.90;;;;;;2613910;54;20419;-77
2022/12/09 04:29:43;;;;;;;37.63;26.30;;;2.70;99.90;;;;;;2613924;54;20154;-76
2022/12/09 04:35:31;;;;;;;48.47;27.97;;;2.90;99.90;;;;;;2613282;54;20415;-76
2022/12/09 04:41:19;;;;;;;35.40;24.10;;;2.80;99.90;;;;;;2613220;54;20126;-76
2022/12/09 04:47:06;;;;;;;31.33;23.10;;;2.70;99.90;;;;;;2613977;54;20398;-77
2022/12/09 04:52:54;;;;;;;44.13;27.13;;;2.60;99.90;;;;;;2613894;54;20139;-77
2022/12/09 04:58:43;;;;;;;38.97;26.77;;;2.50;99.90;;;;;;2612766;54;20134;-78
2022/12/09 05:04:30;;;;;;;36.30;25.63;;;2.50;99.90;;;;;;2612925;54;20375;-75
2022/12/09 05:10:18;;;;;;;43.90;25.70;;;2.70;99.90;;;;;;2615307;54;20701;-76
2022/12/09 05:16:09;;;;;;;47.13;27.40;;;2.70;99.90;;;;;;2614926;54;20230;-76
2022/12/09 05:21:56;;;;;;;41.57;22.90;;;2.70;99.90;;;;;;2614405;54;20422;-77
2022/12/09 05:31:44;;;;;;;42.83;26.00;;;2.50;99.90;;;;;;2614870;39;21200;-77
2022/12/09 05:37:31;;;;;;;29.73;21.60;;;2.40;99.90;;;;;;2615693;31;20849;-77
2022/12/09 05:43:19;;;;;;;34.23;22.83;;;2.20;99.90;;;;;;2614681;54;20178;-73
2022/12/09 05:49:07;;;;;;;36.83;24.70;;;2.00;99.90;;;;;;2614750;39;20843;-75
2022/12/09 05:54:54;;;;;;;46.60;22.00;;;1.90;99.90;;;;;;2614573;54;20162;-76
2022/12/09 06:00:42;;;;;;;38.60;23.87;;;1.80;99.90;;;;;;2613102;54;20129;-78
2022/12/09 06:06:30;;;;;;;32.60;23.40;;;1.80;99.90;;;;;;2614672;54;20146;-75
2022/12/09 06:12:18;;;;;;;42.00;28.17;;;1.70;99.90;;;;;;2613155;54;20162;-77
2022/12/09 06:18:05;;;;;;;45.00;27.70;;;1.80;99.90;;;;;;2613277;54;20143;-83
2022/12/09 06:23:53;;;;;;;37.70;24.77;;;1.70;99.90;;;;;;2613040;54;20748;-73
2022/12/09 06:27:16;;;;;;;35.80;25.70;;;1.70;99.90;;;;;;2614050;54;20402;-74
2022/12/09 06:29:42;;;;;;;38.33;25.37;;;1.70;99.90;;;;;;2613159;54;20367;-76
2022/12/09 06:35:30;;;;;;;40.17;26.43;;;1.60;99.90;;;;;;2615817;39;20490;-77
2022/12/09 06:41:17;;;;;;;39.07;25.57;;;1.60;99.90;;;;;;2610851;54;20158;-77
2022/12/09 06:47:08;;;;;;;45.37;25.57;;;1.40;99.90;;;;;;2613642;54;20202;-78
2022/12/09 06:52:56;;;;;;;39.60;27.67;;;1.30;99.90;;;;;;2614093;54;20374;-77
2022/12/09 06:58:45;;;;;;;44.37;26.00;;;1.10;99.90;;;;;;2613835;54;20387;-79
2022/12/09 07:04:32;;;;;;;40.83;25.70;;;1.00;99.90;;;;;;2609453;54;20510;-76
2022/12/09 07:10:20;;;;;;;40.90;23.87;;;1.00;99.90;;;;;;2613281;39;20517;-75
2022/12/09 07:16:07;;;;;;;41.73;24.77;;;1.30;99.90;;;;;;2612543;54;20170;-78
2022/12/09 07:21:56;;;;;;;44.87;26.30;;;1.50;99.90;;;;;;2613672;54;20134;-77
2022/12/09 07:31:49;;;;;;;47.70;28.50;;;1.70;99.90;;;;;;2612976;54;20423;-77
2022/12/09 07:37:37;;;;;;;43.10;27.10;;;1.70;99.90;;;;;;2613695;54;20599;-73
2022/12/09 07:43:24;;;;;;;45.70;25.73;;;1.90;99.90;;;;;;2613881;54;20126;-77
2022/12/09 07:49:13;;;;;;;49.07;27.83;;;2.00;99.90;;;;;;2613633;54;20134;-78
2022/12/09 07:55:00;;;;;;;43.77;25.87;;;1.90;99.90;;;;;;2612020;54;20419;-77
2022/12/09 08:00:48;;;;;;;37.60;27.00;;;2.20;99.90;;;;;;2612977;54;21044;-78
2022/12/09 08:06:36;;;;;;;47.57;28.97;;;2.10;99.90;;;;;;2615263;39;20545;-78
2022/12/09 08:12:24;;;;;;;40.40;25.90;;;2.10;99.90;;;;;;2614493;54;20394;-75
2022/12/09 08:18:12;;;;;;;58.13;37.00;;;2.10;99.90;;;;;;2614681;54;20203;-78
2022/12/09 08:24:01;;;;;;;37.77;21.80;;;2.20;99.90;;;;;;2613853;54;20139;-77
2022/12/09 08:27:18;;;;;;;28.87;19.27;;;2.20;99.90;;;;;;2614376;54;20959;-78
2022/12/09 08:29:43;;;;;;;30.07;18.07;;;2.30;99.90;;;;;;2613384;47;20427;-79
2022/12/09 08:35:31;;;;;;;46.70;30.57;;;2.50;99.90;;;;;;2612117;54;20282;-78
2022/12/09 08:41:19;;;;;;;44.50;24.23;;;2.40;99.90;;;;;;2614148;54;20226;-78
2022/12/09 08:47:06;;;;;;;38.63;25.43;;;2.50;99.90;;;;;;2614655;54;20161;-78
2022/12/09 08:52:54;;;;;;;34.90;19.40;;;2.50;99.90;;;;;;2613246;54;20150;-76
2022/12/09 08:58:42;;;;;;;21.77;16.57;;;2.60;99.90;;;;;;2614178;54;20196;-77
2022/12/09 09:08:52;;;;;;;22.47;17.90;;;2.80;99.90;;;;;;2614348;39;20746;-74
2022/12/09 09:14:39;;;;;;;25.20;17.30;;;2.60;99.90;;;;;;2614944;39;20712;-76
2022/12/09 09:20:27;;;;;;;26.40;17.50;;;2.60;99.90;;;;;;2615116;39;20509;-77
2022/12/09 09:26:24;;;;;;;20.27;16.63;;;2.70;99.90;;;;;;2614796;39;20659;-76
2022/12/09 09:32:11;;;;;;;27.80;17.67;;;2.80;99.90;;;;;;2614631;54;20423;-77
2022/12/09 09:38:00;;;;;;;20.33;16.97;;;2.70;99.90;;;;;;2613841;54;20226;-74
2022/12/09 09:43:48;;;;;;;24.93;16.50;;;2.80;99.90;;;;;;2612494;54;20155;-74
2022/12/09 09:49:41;;;;;;;17.57;15.67;;;2.90;99.90;;;;;;2612748;54;20399;-74
2022/12/09 10:15:00;;;;;;;22.73;13.40;;;3.20;99.90;;;;;;2612924;54;20362;-76
2022/12/09 10:20:48;;;;;;;20.40;15.53;;;3.20;99.90;;;;;;2612946;54;20551;-79
2022/12/09 10:26:37;;;;;;;22.20;16.60;;;3.40;99.90;;;;;;2615177;54;20180;-77
2022/12/09 10:32:28;;;;;;;21.60;15.27;;;3.20;99.90;;;;;;2615160;54;20430;-79
2022/12/09 10:35:52;;;;;;;24.80;14.23;;;3.30;99.90;;;;;;2613957;54;21030;-77
2022/12/09 10:47:56;;;;;;;17.37;14.03;;;3.50;99.90;;;;;;2612223;39;20755;-76
2022/12/09 11:11:05;;;;;;;20.63;15.97;;;3.50;99.90;;;;;;2611631;54;20426;-74
2022/12/09 11:16:56;;;;;;;16.20;13.23;;;3.50;99.90;;;;;;2613454;54;20987;-78
2022/12/09 11:22:44;;;;;;;17.47;13.57;;;3.70;99.90;;;;;;2614153;54;20411;-78
2022/12/09 11:28:35;;;;;;;18.03;14.40;;;3.70;99.90;;;;;;2614172;39;20865;-79
2022/12/09 11:31:19;;;;;;;16.20;13.67;;;3.70;99.90;;;;;;2612887;54;20712;-79
2022/12/09 11:43:45;;;;;;;18.60;14.23;;;3.50;99.90;;;;;;2614273;54;20951;-79
2022/12/09 11:56:15;;;;;;;19.13;14.10;;;3.90;99.90;;;;;;2611279;54;20503;-78
2022/12/09 12:08:45;;;;;;;19.23;14.00;;;4.10;99.90;;;;;;2610713;54;20403;-78
2022/12/09 12:14:36;;;;;;;15.00;13.50;;;3.90;99.90;;;;;;2613507;54;20446;-78
2022/12/09 12:34:26;;;;;;;22.27;16.00;;;4.00;99.90;;;;;;2612843;54;20421;-78
2022/12/09 12:50:31;;;;;;;23.27;16.40;;;3.80;99.90;;;;;;2611136;54;20428;-77
2022/12/09 13:02:50;;;;;;;19.93;15.67;;;3.80;99.90;;;;;;2613334;54;20403;-80
2022/12/09 13:21:36;;;;;;;23.63;17.63;;;3.80;99.90;;;;;;2612123;54;21020;-78
2022/12/09 13:33:43;;;;;;;20.23;15.17;;;3.80;99.90;;;;;;2612675;54;20445;-78
2022/12/09 13:39:39;;;;;;;26.37;18.40;;;3.60;99.90;;;;;;2611701;54;20415;-77
2022/12/09 13:45:33;;;;;;;23.87;15.20;;;3.60;99.90;;;;;;2615751;46;20478;-78
2022/12/09 13:51:22;;;;;;;22.30;16.00;;;3.70;99.90;;;;;;2612105;54;20379;-78
2022/12/09 14:01:04;;;;;;;21.60;17.43;;;5.30;99.90;;;;;;2613761;39;20895;-77
2022/12/09 14:13:36;;;;;;;24.50;16.50;;;3.70;99.90;;;;;;2612429;46;20446;-77
2022/12/09 14:23:05;;;;;;;22.63;18.47;;;3.80;99.90;;;;;;2610543;54;20423;-76
2022/12/09 14:28:54;;;;;;;27.83;22.13;;;3.70;99.90;;;;;;2613174;54;20697;-78
2022/12/09 14:34:59;;;;;;;23.30;17.90;;;3.30;99.90;;;;;;2613230;54;20515;-77
2022/12/09 14:40:46;;;;;;;23.63;16.73;;;3.10;99.90;;;;;;2612365;54;20441;-78
2022/12/09 14:46:36;;;;;;;21.67;17.37;;;3.00;99.90;;;;;;2611329;54;20147;-80
2022/12/09 14:52:28;;;;;;;23.23;17.67;;;3.00;99.90;;;;;;2612786;54;20373;-76
2022/12/09 14:58:20;;;;;;;23.63;17.40;;;3.10;99.90;;;;;;2611875;54;20391;-78
2022/12/09 15:10:45;;;;;;;27.47;19.40;;;2.90;99.90;;;;;;2611501;54;20430;-78
2022/12/09 15:16:33;;;;;;;25.40;18.40;;;2.70;99.90;;;;;;2613950;54;20174;-78
2022/12/09 15:28:36;;;;;;;28.57;21.20;;;2.40;99.90;;;;;;2612377;54;20454;-75
2022/12/09 15:34:30;;;;;;;42.50;24.53;;;2.20;99.90;;;;;;2613857;54;20450;-80
2022/12/09 15:40:21;;;;;;;32.00;22.63;;;2.10;99.90;;;;;;2613806;54;20122;-77
2022/12/09 15:46:09;;;;;;;30.00;23.00;;;2.20;99.90;;;;;;2612683;54;20380;-78
2022/12/09 15:52:00;;;;;;;49.97;32.80;;;2.40;99.90;;;;;;2612743;54;20933;-78
2022/12/09 15:57:52;;;;;;;62.77;40.30;;;2.50;99.90;;;;;;2612767;54;20407;-78
2022/12/09 16:03:39;;;;;;;61.13;37.50;;;2.40;99.90;;;;;;2612007;39;20858;-78
2022/12/09 16:09:27;;;;;;;58.50;38.10;;;2.40;99.90;;;;;;2611800;54;20131;-76
2022/12/09 16:22:02;;;;;;;68.30;41.87;;;2.20;99.90;;;;;;2612155;46;21019;-78
2022/12/09 16:27:56;;;;;;;72.00;41.57;;;2.20;99.90;;;;;;2613101;54;21033;-73
2022/12/09 16:30:59;;;;;;;70.23;42.10;;;2.10;99.90;;;;;;2609999;54;20547;-77
2022/12/09 16:36:56;;;;;;;67.80;38.43;;;1.70;99.90;;;;;;2614478;54;20418;-76
2022/12/09 16:42:44;;;;;;;65.83;35.40;;;1.50;99.90;;;;;;2611091;54;20439;-78
2022/12/09 16:48:31;;;;;;;65.23;37.27;;;1.40;99.90;;;;;;2612625;54;20158;-79
2022/12/09 16:54:19;;;;;;;65.33;37.30;;;1.30;99.90;;;;;;2612891;54;20149;-74
2022/12/09 17:00:08;;;;;;;62.13;33.77;;;1.20;99.90;;;;;;2611261;54;20138;-77
2022/12/09 17:05:55;;;;;;;57.87;33.40;;;1.30;99.90;;;;;;2612591;54;20511;-77
2022/12/09 17:11:43;;;;;;;66.00;34.10;;;1.30;99.90;;;;;;2612136;54;20138;-77
2022/12/09 17:17:31;;;;;;;69.43;34.70;;;1.40;99.90;;;;;;2611477;54;20672;-75
2022/12/09 17:23:19;;;;;;;64.50;36.53;;;1.30;99.90;;;;;;2612993;54;20150;-75
2022/12/09 17:29:07;;;;;;;68.53;34.50;;;1.30;99.90;;;;;;2611753;39;20158;-79
2022/12/09 17:34:46;;;;;;;65.30;34.77;;;1.30;99.90;;;;;;2611279;54;20165;-77
2022/12/09 17:40:34;;;;;;;63.10;31.30;;;1.30;99.90;;;;;;2609491;54;20134;-77
2022/12/09 17:46:22;;;;;;;74.80;34.10;;;1.10;99.90;;;;;;2611099;54;20382;-74
2022/12/09 17:52:10;;;;;;;66.77;34.27;;;1.00;99.90;;;;;;2611129;54;20399;-78
2022/12/09 17:57:58;;;;;;;67.57;34.30;;;1.00;99.90;;;;;;2613130;54;20219;-78
2022/12/09 18:03:46;;;;;;;68.97;34.37;;;1.00;99.90;;;;;;2613626;39;20548;-76
2022/12/09 18:09:33;;;;;;;77.07;37.17;;;1.00;99.90;;;;;;2613643;54;20158;-77
2022/12/09 18:15:21;;;;;;;77.43;36.50;;;1.00;99.90;;;;;;2614376;54;20134;-78
2022/12/09 18:21:10;;;;;;;58.93;31.87;;;0.90;99.90;;;;;;2612301;54;20134;-79
2022/12/09 18:26:59;;;;;;;62.67;34.60;;;0.80;99.90;;;;;;2605568;54;20484;-77
2022/12/09 18:36:55;;;;;;;71.30;32.47;;;0.90;99.90;;;;;;2610471;54;20422;-77
2022/12/09 18:42:43;;;;;;;65.03;37.50;;;0.90;99.90;;;;;;2612811;54;20382;-77
2022/12/09 18:48:31;;;;;;;64.80;33.70;;;0.80;99.90;;;;;;2605164;54;20133;-75
2022/12/09 19:05:18;;;;;;;56.13;32.20;;;1.10;99.90;;;;;;2612055;54;20426;-79
2022/12/09 19:11:05;;;;;;;54.83;31.50;;;1.00;99.90;;;;;;2612177;54;20479;-79
2022/12/09 19:16:53;;;;;;;59.30;33.13;;;1.00;99.90;;;;;;2612556;54;20141;-76
2022/12/09 19:22:40;;;;;;;62.57;33.67;;;1.10;99.90;;;;;;2612715;46;20414;-78
2022/12/09 19:28:27;;;;;;;57.90;31.57;;;1.10;99.90;;;;;;2611949;54;20158;-75
2022/12/09 19:37:35;;;;;;;56.73;30.60;;;1.00;99.90;;;;;;2613210;54;20460;-76
2022/12/09 19:43:23;;;;;;;61.53;33.20;;;1.00;99.90;;;;;;2613967;54;20173;-77
2022/12/09 19:49:12;;;;;;;56.50;32.77;;;0.90;99.90;;;;;;2612437;54;20263;-77
2022/12/09 19:55:00;;;;;;;49.00;28.67;;;0.80;99.90;;;;;;2614720;39;21089;-79
2022/12/09 20:00:48;;;;;;;49.43;30.40;;;0.80;99.90;;;;;;2613693;54;20134;-78
2022/12/09 20:06:36;;;;;;;57.20;31.57;;;0.80;99.90;;;;;;2613194;54;20135;-77
2022/12/09 20:12:23;;;;;;;53.37;31.43;;;0.80;99.90;;;;;;2613496;54;20131;-78
2022/12/09 20:18:13;;;;;;;59.87;32.40;;;0.80;99.90;;;;;;2613659;54;20130;-74
2022/12/09 20:24:01;;;;;;;63.10;31.97;;;0.90;99.90;;;;;;2614217;54;20371;-75
2022/12/09 20:29:49;;;;;;;59.90;33.83;;;1.00;99.90;;;;;;2613881;54;20403;-77
2022/12/09 20:35:51;;;;;;;57.53;32.53;;;0.90;99.90;;;;;;2613350;54;20416;-75
2022/12/09 20:41:40;;;;;;;65.03;34.00;;;1.00;99.90;;;;;;2614254;54;20226;-77
2022/12/09 20:47:28;;;;;;;57.47;31.90;;;1.00;99.90;;;;;;2614240;54;20374;-76
2022/12/09 20:53:16;;;;;;;81.93;49.17;;;1.00;99.90;;;;;;2613352;54;20129;-78
2022/12/09 20:59:05;;;;;;;62.07;33.83;;;1.10;99.90;;;;;;2613869;54;20150;-79
2022/12/09 21:04:53;;;;;;;62.57;32.47;;;1.00;99.90;;;;;;2612627;46;20409;-79
2022/12/09 21:10:41;;;;;;;54.13;30.83;;;0.90;99.90;;;;;;2614317;46;20170;-77
2022/12/09 21:16:30;;;;;;;49.27;27.87;;;1.10;99.90;;;;;;2612296;54;20403;-81
2022/12/09 21:22:18;;;;;;;59.30;30.90;;;1.00;99.90;;;;;;2614082;46;20527;-78
2022/12/09 21:28:06;;;;;;;44.50;28.73;;;0.90;99.90;;;;;;2614382;31;20571;-78
2022/12/09 21:37:41;;;;;;;52.70;30.00;;;1.00;99.90;;;;;;2614144;54;20386;-77
2022/12/09 21:43:30;;;;;;;51.73;31.00;;;0.90;99.90;;;;;;2614971;39;20807;-77
2022/12/09 21:49:17;;;;;;;48.87;30.23;;;1.00;99.90;;;;;;2613132;54;20402;-77
2022/12/09 21:55:05;;;;;;;60.87;34.77;;;0.90;99.90;;;;;;2616114;39;20553;-78
2022/12/09 22:00:53;;;;;;;59.00;33.20;;;0.90;99.90;;;;;;2614724;54;20286;-78
2022/12/09 22:06:44;;;;;;;53.13;32.67;;;0.90;99.90;;;;;;2614125;54;20250;-76
2022/12/09 22:12:34;;;;;;;56.47;32.50;;;0.90;99.90;;;;;;2614727;54;20952;-79
2022/12/09 22:18:22;;;;;;;59.63;34.43;;;0.90;99.90;;;;;;2615437;54;20919;-80
2022/12/09 22:24:11;;;;;;;52.60;33.30;;;1.00;99.90;;;;;;2615282;54;20130;-78
2022/12/09 22:29:59;;;;;;;58.47;35.97;;;1.00;99.90;;;;;;2614772;54;20395;-78
2022/12/09 22:33:02;;;;;;;54.90;32.67;;;1.00;99.90;;;;;;2614743;39;20858;-79
2022/12/09 22:35:28;;;;;;;52.53;32.37;;;1.00;99.90;;;;;;2614339;54;20443;-78
2022/12/09 22:41:21;;;;;;;55.80;31.23;;;1.10;99.90;;;;;;2614506;54;20190;-77
2022/12/09 22:47:08;;;;;;;55.57;33.60;;;1.00;99.90;;;;;;2615039;54;20964;-79
2022/12/09 22:52:56;;;;;;;59.13;34.50;;;0.90;99.90;;;;;;2614704;54;20454;-78
2022/12/09 22:58:44;;;;;;;61.23;35.93;;;0.90;99.90;;;;;;2614730;54;20166;-79
2022/12/09 23:04:35;;;;;;;63.57;34.07;;;0.90;99.90;;;;;;2613675;54;20384;-76
2022/12/09 23:10:23;;;;;;;64.90;38.97;;;1.00;99.90;;;;;;2614746;46;20406;-79
2022/12/09 23:16:14;;;;;;;59.97;36.40;;;0.90;99.90;;;;;;2614964;39;20895;-77
2022/12/09 23:22:02;;;;;;;65.87;36.07;;;0.70;99.90;;;;;;2614813;54;20919;-78
2022/12/09 23:27:50;;;;;;;53.77;34.53;;;0.50;99.90;;;;;;2614085;54;20374;-74
2022/12/09 23:37:43;;;;;;;65.70;35.43;;;0.20;99.90;;;;;;2614576;54;20419;-79
2022/12/09 23:43:33;;;;;;;59.53;35.03;;;0.10;99.90;;;;;;2614508;54;20395;-77
2022/12/09 23:49:22;;;;;;;69.70;38.00;;;-0.10;99.90;;;;;;2612419;54;20354;-76
2022/12/09 23:55:09;;;;;;;55.53;35.77;;;0.00;99.90;;;;;;2613182;54;20374;-78
